TimeCDT,TemperatureF,Dew PointF,Humidity,Sea Level PressureIn,VisibilityMPH,Wind Direction,Wind SpeedMPH,Gust SpeedMPH,PrecipitationIn,Events,Conditions,WindDirDegrees,DateUTC
12:15 AM,49.3,46.8,91,29.94,7.0,ENE,10.4,-,N/A,,Clear,60,2013-05-04 05:15:00
12:35 AM,50.2,47.5,90,29.94,10.0,ENE,11.5,-,N/A,,Scattered Clouds,60,2013-05-04 05:35:00
12:55 AM,50.2,47.5,90,29.95,10.0,East,13.8,-,N/A,,Mostly Cloudy,80,2013-05-04 05:55:00
1:15 AM,51.6,48.7,90,29.96,10.0,East,10.4,-,N/A,,Overcast,100,2013-05-04 06:15:00
1:35 AM,52.0,48.7,89,29.96,10.0,East,9.2,-,N/A,,Overcast,80,2013-05-04 06:35:00
1:55 AM,51.8,48.4,88,29.95,10.0,East,9.2,-,N/A,,Scattered Clouds,80,2013-05-04 06:55:00
2:15 AM,51.1,48.2,90,29.95,10.0,ENE,9.2,-,N/A,,Scattered Clouds,70,2013-05-04 07:15:00
2:35 AM,50.2,47.3,90,29.94,10.0,ENE,9.2,-,N/A,,Scattered Clouds,70,2013-05-04 07:35:00
2:55 AM,50.2,47.5,90,29.94,7.0,ENE,8.1,-,N/A,,Clear,70,2013-05-04 07:55:00
3:15 AM,49.3,46.8,91,29.95,7.0,ENE,8.1,-,N/A,,Scattered Clouds,70,2013-05-04 08:15:00
3:35 AM,50.0,47.5,91,29.95,7.0,ENE,6.9,-,N/A,,Mostly Cloudy,70,2013-05-04 08:35:00
3:55 AM,49.3,46.8,91,29.95,7.0,ENE,4.6,-,N/A,,Scattered Clouds,70,2013-05-04 08:55:00
4:15 AM,49.1,46.4,90,29.95,7.0,NE,5.8,-,N/A,,Scattered Clouds,40,2013-05-04 09:15:00
4:35 AM,49.1,46.6,91,29.95,5.0,NE,5.8,-,N/A,,Scattered Clouds,50,2013-05-04 09:35:00
4:55 AM,49.3,46.9,92,29.95,7.0,ENE,6.9,-,N/A,,Scattered Clouds,60,2013-05-04 09:55:00
5:15 AM,49.3,46.8,91,29.95,7.0,ENE,8.1,-,N/A,,Scattered Clouds,60,2013-05-04 10:15:00
5:35 AM,49.1,46.4,90,29.95,7.0,ENE,6.9,-,N/A,,Clear,60,2013-05-04 10:35:00
5:55 AM,48.9,46.4,91,29.95,5.0,ENE,8.1,-,N/A,,Clear,60,2013-05-04 10:55:00
6:15 AM,48.6,46.0,91,29.96,7.0,ENE,8.1,-,N/A,,Clear,60,2013-05-04 11:15:00
6:35 AM,49.1,46.4,90,29.96,7.0,NE,10.4,-,N/A,,Clear,50,2013-05-04 11:35:00
6:55 AM,49.8,47.1,90,29.96,7.0,NE,9.2,-,N/A,,Clear,50,2013-05-04 11:55:00
7:15 AM,50.4,47.5,90,29.97,10.0,ENE,9.2,-,N/A,,Clear,60,2013-05-04 12:15:00
7:35 AM,52.2,48.9,89,29.97,10.0,ENE,9.2,-,N/A,,Clear,60,2013-05-04 12:35:00
7:55 AM,53.1,49.1,86,29.98,10.0,ENE,9.2,-,N/A,,Clear,70,2013-05-04 12:55:00
8:15 AM,54.0,49.1,84,29.98,10.0,East,10.4,-,N/A,,Clear,80,2013-05-04 13:15:00
8:35 AM,55.2,49.8,82,29.98,10.0,East,9.2,-,N/A,,Clear,80,2013-05-04 13:35:00
8:55 AM,55.6,49.5,80,29.98,10.0,East,9.2,-,N/A,,Clear,80,2013-05-04 13:55:00
9:15 AM,56.5,49.5,77,29.98,10.0,East,11.5,-,N/A,,Clear,80,2013-05-04 14:15:00
9:35 AM,57.2,50.0,77,29.99,10.0,East,10.4,-,N/A,,Scattered Clouds,100,2013-05-04 14:35:00
9:55 AM,58.8,50.4,73,30.00,10.0,East,10.4,-,N/A,,Scattered Clouds,90,2013-05-04 14:55:00
10:15 AM,60.6,50.5,69,30.00,10.0,East,9.2,-,N/A,,Mostly Cloudy,90,2013-05-04 15:15:00
10:35 AM,59.2,49.8,71,30.00,10.0,East,8.1,-,N/A,Rain,Light Rain,90,2013-05-04 15:35:00
10:55 AM,62.8,51.3,66,30.00,10.0,East,6.9,-,N/A,,Scattered Clouds,100,2013-05-04 15:55:00
11:15 AM,64.8,50.9,61,29.99,10.0,SE,10.4,-,N/A,,Clear,130,2013-05-04 16:15:00
11:35 AM,65.8,50.7,58,29.99,10.0,ESE,5.8,-,N/A,,Clear,110,2013-05-04 16:35:00
11:55 AM,66.6,51.1,57,29.99,10.0,ESE,6.9,-,N/A,,Clear,110,2013-05-04 16:55:00
12:15 PM,66.7,51.4,58,29.98,10.0,East,6.9,-,N/A,,Clear,80,2013-05-04 17:15:00
12:35 PM,66.2,50.0,56,29.98,10.0,East,8.1,-,N/A,,Mostly Cloudy,100,2013-05-04 17:35:00
12:55 PM,65.8,54.7,67,29.98,10.0,NNE,11.5,-,N/A,,Scattered Clouds,30,2013-05-04 17:55:00
1:15 PM,65.5,53.2,65,29.98,10.0,NE,9.2,16.1,N/A,,Clear,50,2013-05-04 18:15:00
1:35 PM,66.2,52.0,60,29.98,10.0,ENE,8.1,-,N/A,,Clear,70,2013-05-04 18:35:00
1:55 PM,67.1,51.3,57,29.97,10.0,East,9.2,-,N/A,,Clear,80,2013-05-04 18:55:00
2:15 PM,67.6,50.9,55,29.97,10.0,ENE,11.5,-,N/A,,Clear,60,2013-05-04 19:15:00
2:35 PM,68.9,50.7,52,29.96,10.0,ENE,15.0,-,N/A,,Clear,60,2013-05-04 19:35:00
2:55 PM,70.3,48.9,47,29.96,10.0,East,13.8,23.0,N/A,,Scattered Clouds,90,2013-05-04 19:55:00
3:15 PM,68.7,46.4,45,29.96,10.0,ENE,19.6,24.2,N/A,,Scattered Clouds,70,2013-05-04 20:15:00
3:35 PM,67.8,48.6,50,29.96,10.0,ENE,12.7,-,N/A,,Scattered Clouds,70,2013-05-04 20:35:00
3:55 PM,68.9,48.2,48,29.96,10.0,ENE,16.1,-,N/A,,Scattered Clouds,60,2013-05-04 20:55:00
4:15 PM,67.3,48.4,51,29.96,10.0,East,15.0,-,N/A,,Scattered Clouds,80,2013-05-04 21:15:00
4:35 PM,67.1,49.1,52,29.96,10.0,East,16.1,20.7,N/A,,Scattered Clouds,80,2013-05-04 21:35:00
4:55 PM,66.6,48.4,52,29.96,10.0,East,16.1,20.7,N/A,,Mostly Cloudy,80,2013-05-04 21:55:00
5:15 PM,66.2,49.1,54,29.97,10.0,East,15.0,20.7,N/A,,Scattered Clouds,80,2013-05-04 22:15:00
5:35 PM,66.2,47.8,52,29.97,10.0,East,18.4,23.0,N/A,,Scattered Clouds,80,2013-05-04 22:35:00
5:55 PM,65.7,48.0,53,29.97,10.0,East,13.8,17.3,N/A,,Scattered Clouds,80,2013-05-04 22:55:00
6:15 PM,65.7,47.5,52,29.98,10.0,East,17.3,21.9,N/A,,Mostly Cloudy,80,2013-05-04 23:15:00
6:35 PM,64.6,47.5,54,29.98,10.0,ENE,11.5,-,N/A,,Mostly Cloudy,70,2013-05-04 23:35:00
6:55 PM,61.9,52.9,72,29.99,10.0,South,6.9,-,N/A,,Scattered Clouds,180,2013-05-04 23:55:00
7:15 PM,60.1,54.5,82,30.00,10.0,SW,9.2,-,N/A,,Clear,220,2013-05-05 00:15:00
7:35 PM,58.5,54.0,85,30.01,10.0,SSW,9.2,-,N/A,,Clear,200,2013-05-05 00:35:00
7:55 PM,56.7,53.1,88,30.02,10.0,SSW,4.6,-,N/A,,Clear,210,2013-05-05 00:55:00
8:15 PM,56.1,52.3,87,30.02,10.0,SSW,5.8,-,N/A,,Clear,210,2013-05-05 01:15:00
8:35 PM,56.8,52.7,86,30.03,10.0,SW,4.6,-,N/A,,Clear,220,2013-05-05 01:35:00
8:55 PM,56.3,52.0,85,30.04,10.0,SW,4.6,-,N/A,,Scattered Clouds,230,2013-05-05 01:55:00
9:15 PM,56.3,51.8,85,30.04,10.0,SW,4.6,-,N/A,,Mostly Cloudy,220,2013-05-05 02:15:00
9:35 PM,55.8,51.6,86,30.04,10.0,SW,3.5,-,N/A,,Mostly Cloudy,220,2013-05-05 02:35:00
9:55 PM,55.4,51.1,85,30.05,10.0,Calm,Calm,-,N/A,,Scattered Clouds,0,2013-05-05 02:55:00
10:15 PM,53.2,49.8,88,30.05,10.0,Calm,Calm,-,N/A,,Clear,0,2013-05-05 03:15:00
10:35 PM,52.7,49.8,90,30.06,10.0,East,4.6,-,N/A,,Mostly Cloudy,80,2013-05-05 03:35:00
10:55 PM,52.9,50.0,90,30.06,10.0,East,3.5,-,N/A,,Mostly Cloudy,90,2013-05-05 03:55:00
11:15 PM,52.7,50.0,91,30.06,7.0,East,3.5,-,N/A,,Scattered Clouds,90,2013-05-05 04:15:00
11:35 PM,52.7,50.0,91,30.06,10.0,Calm,Calm,-,N/A,,Scattered Clouds,0,2013-05-05 04:35:00
11:55 PM,52.7,50.0,91,30.05,10.0,Calm,Calm,-,N/A,,Mostly Cloudy,0,2013-05-05 04:55:00